sensor_id;sensor_type;location;lat;lon;timestamp;P1;durP1;ratioP1;P2;durP2;ratioP2
23519;SDS011;11936;50.820;4.336;2023-08-31T00:01:46;3.92;;;1.80;;
23519;SDS011;11936;50.820;4.336;2023-08-31T00:04:13;5.07;;;2.17;;
23519;SDS011;11936;50.820;4.336;2023-08-31T00:06:39;3.53;;;2.00;;
23519;SDS011;11936;50.820;4.336;2023-08-31T00:09:05;2.53;;;1.55;;
23519;SDS011;11936;50.820;4.336;2023-08-31T00:11:37;4.03;;;2.03;;
23519;SDS011;11936;50.820;4.336;2023-08-31T00:14:06;3.35;;;2.17;;
23519;SDS011;11936;50.820;4.336;2023-08-31T00:16:32;5.72;;;2.13;;
23519;SDS011;11936;50.820;4.336;2023-08-31T00:18:58;4.85;;;2.10;;
23519;SDS011;11936;50.820;4.336;2023-08-31T00:21:24;4.25;;;1.80;;
23519;SDS011;11936;50.820;4.336;2023-08-31T00:23:50;3.20;;;1.80;;
23519;SDS011;11936;50.820;4.336;2023-08-31T00:26:15;3.08;;;1.90;;
23519;SDS011;11936;50.820;4.336;2023-08-31T00:28:41;2.40;;;2.05;;
23519;SDS011;11936;50.820;4.336;2023-08-31T00:31:09;2.75;;;2.13;;
23519;SDS011;11936;50.820;4.336;2023-08-31T00:33:35;4.32;;;2.65;;
23519;SDS011;11936;50.820;4.336;2023-08-31T00:36:03;3.22;;;2.10;;
23519;SDS011;11936;50.820;4.336;2023-08-31T00:38:29;4.53;;;2.58;;
23519;SDS011;11936;50.820;4.336;2023-08-31T00:40:55;2.35;;;2.03;;
23519;SDS011;11936;50.820;4.336;2023-08-31T00:43:21;2.72;;;1.80;;
23519;SDS011;11936;50.820;4.336;2023-08-31T00:45:48;9.77;;;2.50;;
23519;SDS011;11936;50.820;4.336;2023-08-31T00:48:15;4.15;;;2.28;;
23519;SDS011;11936;50.820;4.336;2023-08-31T00:50:43;4.10;;;1.98;;
23519;SDS011;11936;50.820;4.336;2023-08-31T00:53:09;2.30;;;1.98;;
23519;SDS011;11936;50.820;4.336;2023-08-31T00:55:35;2.28;;;2.00;;
23519;SDS011;11936;50.820;4.336;2023-08-31T00:58:01;3.13;;;2.00;;
23519;SDS011;11936;50.820;4.336;2023-08-31T01:00:30;3.88;;;2.45;;
23519;SDS011;11936;50.820;4.336;2023-08-31T01:03:14;3.15;;;2.10;;
23519;SDS011;11936;50.820;4.336;2023-08-31T01:08:25;2.17;;;1.90;;
23519;SDS011;11936;50.820;4.336;2023-08-31T01:13:28;4.57;;;2.42;;
23519;SDS011;11936;50.820;4.336;2023-08-31T01:18:24;4.90;;;2.40;;
23519;SDS011;11936;50.820;4.336;2023-08-31T01:21:02;6.97;;;2.65;;
23519;SDS011;11936;50.820;4.336;2023-08-31T01:26:19;3.10;;;2.13;;
23519;SDS011;11936;50.820;4.336;2023-08-31T01:28:48;2.58;;;2.15;;
23519;SDS011;11936;50.820;4.336;2023-08-31T01:31:15;2.88;;;2.42;;
23519;SDS011;11936;50.820;4.336;2023-08-31T01:33:41;3.22;;;2.65;;
23519;SDS011;11936;50.820;4.336;2023-08-31T01:38:58;2.50;;;1.92;;
23519;SDS011;11936;50.820;4.336;2023-08-31T01:42:00;5.30;;;2.58;;
23519;SDS011;11936;50.820;4.336;2023-08-31T01:47:01;2.22;;;2.03;;
23519;SDS011;11936;50.820;4.336;2023-08-31T01:49:35;5.18;;;2.53;;
23519;SDS011;11936;50.820;4.336;2023-08-31T01:52:01;3.58;;;2.17;;
23519;SDS011;11936;50.820;4.336;2023-08-31T01:54:27;5.03;;;2.35;;
23519;SDS011;11936;50.820;4.336;2023-08-31T01:56:53;2.58;;;2.10;;
23519;SDS011;11936;50.820;4.336;2023-08-31T01:59:19;4.85;;;2.75;;
23519;SDS011;11936;50.820;4.336;2023-08-31T02:01:45;5.28;;;2.35;;
23519;SDS011;11936;50.820;4.336;2023-08-31T02:04:10;7.03;;;2.60;;
23519;SDS011;11936;50.820;4.336;2023-08-31T02:06:36;5.03;;;2.58;;
23519;SDS011;11936;50.820;4.336;2023-08-31T02:09:01;7.22;;;2.85;;
23519;SDS011;11936;50.820;4.336;2023-08-31T02:11:27;4.00;;;2.55;;
23519;SDS011;11936;50.820;4.336;2023-08-31T02:13:53;3.92;;;2.33;;
23519;SDS011;11936;50.820;4.336;2023-08-31T02:16:18;4.40;;;2.60;;
23519;SDS011;11936;50.820;4.336;2023-08-31T02:18:44;3.95;;;2.58;;
23519;SDS011;11936;50.820;4.336;2023-08-31T02:21:09;5.68;;;2.67;;
23519;SDS011;11936;50.820;4.336;2023-08-31T02:23:35;4.95;;;2.15;;
23519;SDS011;11936;50.820;4.336;2023-08-31T02:26:00;5.15;;;2.20;;
23519;SDS011;11936;50.820;4.336;2023-08-31T02:28:26;4.93;;;2.40;;
23519;SDS011;11936;50.820;4.336;2023-08-31T02:30:57;6.53;;;2.30;;
23519;SDS011;11936;50.820;4.336;2023-08-31T02:33:24;4.38;;;2.40;;
23519;SDS011;11936;50.820;4.336;2023-08-31T02:35:50;4.15;;;2.40;;
23519;SDS011;11936;50.820;4.336;2023-08-31T02:38:15;4.90;;;2.58;;
23519;SDS011;11936;50.820;4.336;2023-08-31T02:40:41;3.38;;;2.13;;
23519;SDS011;11936;50.820;4.336;2023-08-31T02:43:07;4.78;;;2.83;;
23519;SDS011;11936;50.820;4.336;2023-08-31T02:45:32;4.45;;;2.42;;
23519;SDS011;11936;50.820;4.336;2023-08-31T02:47:58;3.10;;;2.80;;
23519;SDS011;11936;50.820;4.336;2023-08-31T02:50:23;5.65;;;2.65;;
23519;SDS011;11936;50.820;4.336;2023-08-31T02:52:49;5.07;;;2.97;;
23519;SDS011;11936;50.820;4.336;2023-08-31T02:55:15;4.22;;;2.97;;
23519;SDS011;11936;50.820;4.336;2023-08-31T02:57:40;3.58;;;2.10;;
23519;SDS011;11936;50.820;4.336;2023-08-31T03:00:06;7.22;;;2.60;;
23519;SDS011;11936;50.820;4.336;2023-08-31T03:02:37;6.72;;;2.92;;
23519;SDS011;11936;50.820;4.336;2023-08-31T03:05:03;11.10;;;3.20;;
23519;SDS011;11936;50.820;4.336;2023-08-31T03:07:29;3.47;;;2.60;;
23519;SDS011;11936;50.820;4.336;2023-08-31T03:09:55;5.03;;;2.58;;
23519;SDS011;11936;50.820;4.336;2023-08-31T03:12:20;8.35;;;2.67;;
23519;SDS011;11936;50.820;4.336;2023-08-31T03:14:46;8.25;;;3.15;;
23519;SDS011;11936;50.820;4.336;2023-08-31T03:17:13;7.20;;;2.47;;
23519;SDS011;11936;50.820;4.336;2023-08-31T03:19:38;2.85;;;2.30;;
23519;SDS011;11936;50.820;4.336;2023-08-31T03:22:04;4.45;;;2.40;;
23519;SDS011;11936;50.820;4.336;2023-08-31T03:24:31;6.45;;;2.13;;
23519;SDS011;11936;50.820;4.336;2023-08-31T03:26:57;9.00;;;2.60;;
23519;SDS011;11936;50.820;4.336;2023-08-31T03:29:23;4.15;;;2.55;;
23519;SDS011;11936;50.820;4.336;2023-08-31T03:31:48;2.72;;;2.35;;
23519;SDS011;11936;50.820;4.336;2023-08-31T03:34:14;4.75;;;2.88;;
23519;SDS011;11936;50.820;4.336;2023-08-31T03:36:40;2.08;;;1.90;;
23519;SDS011;11936;50.820;4.336;2023-08-31T03:39:06;5.93;;;2.60;;
23519;SDS011;11936;50.820;4.336;2023-08-31T03:41:31;5.97;;;2.97;;
23519;SDS011;11936;50.820;4.336;2023-08-31T03:43:57;4.25;;;2.20;;
23519;SDS011;11936;50.820;4.336;2023-08-31T03:46:23;4.60;;;2.35;;
23519;SDS011;11936;50.820;4.336;2023-08-31T03:48:49;4.22;;;2.80;;
23519;SDS011;11936;50.820;4.336;2023-08-31T03:51:14;5.50;;;2.53;;
23519;SDS011;11936;50.820;4.336;2023-08-31T03:53:40;6.35;;;2.53;;
23519;SDS011;11936;50.820;4.336;2023-08-31T03:56:06;3.47;;;2.55;;
23519;SDS011;11936;50.820;4.336;2023-08-31T03:58:31;5.30;;;2.15;;
23519;SDS011;11936;50.820;4.336;2023-08-31T04:00:57;5.55;;;2.80;;
23519;SDS011;11936;50.820;4.336;2023-08-31T04:03:23;2.67;;;2.00;;
23519;SDS011;11936;50.820;4.336;2023-08-31T04:05:53;3.58;;;2.47;;
23519;SDS011;11936;50.820;4.336;2023-08-31T04:08:21;3.25;;;2.33;;
23519;SDS011;11936;50.820;4.336;2023-08-31T04:10:47;4.82;;;2.33;;
23519;SDS011;11936;50.820;4.336;2023-08-31T04:13:12;5.93;;;2.30;;
23519;SDS011;11936;50.820;4.336;2023-08-31T04:15:38;9.38;;;3.15;;
23519;SDS011;11936;50.820;4.336;2023-08-31T04:18:04;2.67;;;2.38;;
23519;SDS011;11936;50.820;4.336;2023-08-31T04:20:30;9.48;;;4.50;;
23519;SDS011;11936;50.820;4.336;2023-08-31T04:22:57;4.13;;;2.55;;
23519;SDS011;11936;50.820;4.336;2023-08-31T04:25:23;8.55;;;3.00;;
23519;SDS011;11936;50.820;4.336;2023-08-31T04:27:49;6.10;;;2.45;;
23519;SDS011;11936;50.820;4.336;2023-08-31T04:30:14;4.57;;;2.35;;
23519;SDS011;11936;50.820;4.336;2023-08-31T04:32:40;3.97;;;2.15;;
23519;SDS011;11936;50.820;4.336;2023-08-31T04:35:06;4.72;;;2.63;;
23519;SDS011;11936;50.820;4.336;2023-08-31T04:37:32;3.47;;;2.30;;
23519;SDS011;11936;50.820;4.336;2023-08-31T04:39:58;5.82;;;2.50;;
23519;SDS011;11936;50.820;4.336;2023-08-31T04:42:24;2.83;;;2.15;;
23519;SDS011;11936;50.820;4.336;2023-08-31T04:44:49;5.70;;;2.47;;
23519;SDS011;11936;50.820;4.336;2023-08-31T04:47:15;3.35;;;2.22;;
23519;SDS011;11936;50.820;4.336;2023-08-31T04:49:41;7.35;;;2.88;;
23519;SDS011;11936;50.820;4.336;2023-08-31T04:52:07;10.60;;;4.50;;
23519;SDS011;11936;50.820;4.336;2023-08-31T04:54:33;7.95;;;2.75;;
23519;SDS011;11936;50.820;4.336;2023-08-31T04:56:59;7.25;;;2.40;;
23519;SDS011;11936;50.820;4.336;2023-08-31T04:59:24;5.45;;;2.50;;
23519;SDS011;11936;50.820;4.336;2023-08-31T05:01:50;4.53;;;2.45;;
23519;SDS011;11936;50.820;4.336;2023-08-31T05:04:15;4.70;;;2.33;;
23519;SDS011;11936;50.820;4.336;2023-08-31T05:06:41;6.53;;;2.72;;
23519;SDS011;11936;50.820;4.336;2023-08-31T05:09:07;3.95;;;2.58;;
23519;SDS011;11936;50.820;4.336;2023-08-31T05:11:33;5.70;;;2.50;;
23519;SDS011;11936;50.820;4.336;2023-08-31T05:13:58;5.10;;;2.83;;
23519;SDS011;11936;50.820;4.336;2023-08-31T05:16:24;4.18;;;2.92;;
23519;SDS011;11936;50.820;4.336;2023-08-31T05:18:50;5.28;;;3.15;;
23519;SDS011;11936;50.820;4.336;2023-08-31T05:21:15;8.40;;;3.03;;
23519;SDS011;11936;50.820;4.336;2023-08-31T05:23:41;6.05;;;2.50;;
23519;SDS011;11936;50.820;4.336;2023-08-31T05:26:06;5.05;;;2.55;;
23519;SDS011;11936;50.820;4.336;2023-08-31T05:28:32;10.38;;;3.28;;
23519;SDS011;11936;50.820;4.336;2023-08-31T05:30:59;4.18;;;2.72;;
23519;SDS011;11936;50.820;4.336;2023-08-31T05:33:26;6.88;;;2.63;;
23519;SDS011;11936;50.820;4.336;2023-08-31T05:35:53;8.73;;;3.03;;
23519;SDS011;11936;50.820;4.336;2023-08-31T05:38:19;7.32;;;3.13;;
23519;SDS011;11936;50.820;4.336;2023-08-31T05:40:45;8.52;;;3.15;;
23519;SDS011;11936;50.820;4.336;2023-08-31T05:43:14;9.50;;;4.38;;
23519;SDS011;11936;50.820;4.336;2023-08-31T05:45:41;6.78;;;3.00;;
23519;SDS011;11936;50.820;4.336;2023-08-31T05:48:07;10.25;;;3.00;;
23519;SDS011;11936;50.820;4.336;2023-08-31T05:50:33;5.88;;;2.90;;
23519;SDS011;11936;50.820;4.336;2023-08-31T05:53:01;6.55;;;2.22;;
23519;SDS011;11936;50.820;4.336;2023-08-31T05:55:27;10.60;;;3.05;;
23519;SDS011;11936;50.820;4.336;2023-08-31T05:57:53;9.30;;;3.50;;
23519;SDS011;11936;50.820;4.336;2023-08-31T06:00:18;6.45;;;2.92;;
23519;SDS011;11936;50.820;4.336;2023-08-31T06:02:44;10.10;;;3.30;;
23519;SDS011;11936;50.820;4.336;2023-08-31T06:05:10;7.88;;;3.15;;
23519;SDS011;11936;50.820;4.336;2023-08-31T06:07:41;10.30;;;3.38;;
23519;SDS011;11936;50.820;4.336;2023-08-31T06:10:07;8.65;;;3.22;;
23519;SDS011;11936;50.820;4.336;2023-08-31T06:12:33;14.55;;;3.15;;
23519;SDS011;11936;50.820;4.336;2023-08-31T06:14:59;8.75;;;2.95;;
23519;SDS011;11936;50.820;4.336;2023-08-31T06:17:25;8.40;;;3.20;;
23519;SDS011;11936;50.820;4.336;2023-08-31T06:19:51;10.13;;;3.28;;
23519;SDS011;11936;50.820;4.336;2023-08-31T06:22:16;13.90;;;4.05;;
23519;SDS011;11936;50.820;4.336;2023-08-31T06:24:43;15.02;;;3.33;;
23519;SDS011;11936;50.820;4.336;2023-08-31T06:27:10;18.50;;;3.90;;
23519;SDS011;11936;50.820;4.336;2023-08-31T06:29:37;12.52;;;3.30;;
23519;SDS011;11936;50.820;4.336;2023-08-31T06:32:03;10.82;;;3.30;;
23519;SDS011;11936;50.820;4.336;2023-08-31T06:34:29;13.85;;;3.47;;
23519;SDS011;11936;50.820;4.336;2023-08-31T06:36:56;11.45;;;3.80;;
23519;SDS011;11936;50.820;4.336;2023-08-31T06:39:23;13.25;;;4.25;;
23519;SDS011;11936;50.820;4.336;2023-08-31T06:41:49;13.05;;;3.50;;
23519;SDS011;11936;50.820;4.336;2023-08-31T06:44:15;12.80;;;3.70;;
23519;SDS011;11936;50.820;4.336;2023-08-31T06:46:41;9.88;;;3.63;;
23519;SDS011;11936;50.820;4.336;2023-08-31T06:49:07;16.13;;;3.58;;
23519;SDS011;11936;50.820;4.336;2023-08-31T06:51:33;14.15;;;3.78;;
23519;SDS011;11936;50.820;4.336;2023-08-31T06:53:58;9.20;;;3.65;;
23519;SDS011;11936;50.820;4.336;2023-08-31T06:56:31;11.23;;;3.63;;
23519;SDS011;11936;50.820;4.336;2023-08-31T06:59:00;11.73;;;3.80;;
23519;SDS011;11936;50.820;4.336;2023-08-31T07:01:26;10.60;;;3.90;;
23519;SDS011;11936;50.820;4.336;2023-08-31T07:03:54;11.90;;;3.70;;
23519;SDS011;11936;50.820;4.336;2023-08-31T07:06:20;11.98;;;4.05;;
23519;SDS011;11936;50.820;4.336;2023-08-31T07:08:46;13.05;;;4.03;;
23519;SDS011;11936;50.820;4.336;2023-08-31T07:11:12;13.25;;;3.80;;
23519;SDS011;11936;50.820;4.336;2023-08-31T07:13:38;13.30;;;4.75;;
23519;SDS011;11936;50.820;4.336;2023-08-31T07:16:04;25.20;;;4.55;;
23519;SDS011;11936;50.820;4.336;2023-08-31T07:18:30;9.68;;;4.07;;
23519;SDS011;11936;50.820;4.336;2023-08-31T07:20:56;10.65;;;3.80;;
23519;SDS011;11936;50.820;4.336;2023-08-31T07:23:22;10.75;;;3.90;;
23519;SDS011;11936;50.820;4.336;2023-08-31T07:25:48;16.23;;;3.75;;
23519;SDS011;11936;50.820;4.336;2023-08-31T07:28:14;12.90;;;4.07;;
23519;SDS011;11936;50.820;4.336;2023-08-31T07:30:40;10.18;;;3.65;;
23519;SDS011;11936;50.820;4.336;2023-08-31T07:33:07;10.88;;;4.30;;
23519;SDS011;11936;50.820;4.336;2023-08-31T07:35:33;10.98;;;3.92;;
23519;SDS011;11936;50.820;4.336;2023-08-31T07:37:58;12.07;;;4.18;;
23519;SDS011;11936;50.820;4.336;2023-08-31T07:40:24;14.68;;;3.85;;
23519;SDS011;11936;50.820;4.336;2023-08-31T07:42:50;13.85;;;4.13;;
23519;SDS011;11936;50.820;4.336;2023-08-31T07:45:16;11.73;;;4.57;;
23519;SDS011;11936;50.820;4.336;2023-08-31T07:47:42;9.52;;;4.15;;
23519;SDS011;11936;50.820;4.336;2023-08-31T07:50:08;12.60;;;4.03;;
23519;SDS011;11936;50.820;4.336;2023-08-31T07:52:34;9.48;;;4.13;;
23519;SDS011;11936;50.820;4.336;2023-08-31T07:55:00;9.77;;;3.55;;
23519;SDS011;11936;50.820;4.336;2023-08-31T07:57:26;21.92;;;4.88;;
23519;SDS011;11936;50.820;4.336;2023-08-31T07:59:51;8.80;;;4.47;;
23519;SDS011;11936;50.820;4.336;2023-08-31T08:02:17;13.82;;;4.22;;
23519;SDS011;11936;50.820;4.336;2023-08-31T08:04:42;17.33;;;4.72;;
23519;SDS011;11936;50.820;4.336;2023-08-31T08:07:10;16.25;;;4.25;;
23519;SDS011;11936;50.820;4.336;2023-08-31T08:09:36;7.53;;;3.78;;
23519;SDS011;11936;50.820;4.336;2023-08-31T08:12:01;14.85;;;4.60;;
23519;SDS011;11936;50.820;4.336;2023-08-31T08:14:28;12.38;;;3.78;;
23519;SDS011;11936;50.820;4.336;2023-08-31T08:16:53;17.77;;;4.32;;
23519;SDS011;11936;50.820;4.336;2023-08-31T08:19:22;8.77;;;3.83;;
23519;SDS011;11936;50.820;4.336;2023-08-31T08:21:49;16.13;;;4.45;;
23519;SDS011;11936;50.820;4.336;2023-08-31T08:24:15;14.10;;;5.07;;
23519;SDS011;11936;50.820;4.336;2023-08-31T08:26:41;9.15;;;3.83;;
23519;SDS011;11936;50.820;4.336;2023-08-31T08:29:06;8.80;;;4.07;;
23519;SDS011;11936;50.820;4.336;2023-08-31T08:31:32;15.43;;;4.97;;
23519;SDS011;11936;50.820;4.336;2023-08-31T08:33:58;15.13;;;4.38;;
23519;SDS011;11936;50.820;4.336;2023-08-31T08:36:23;10.07;;;4.28;;
23519;SDS011;11936;50.820;4.336;2023-08-31T08:38:49;13.43;;;5.22;;
23519;SDS011;11936;50.820;4.336;2023-08-31T08:41:15;10.38;;;4.20;;
23519;SDS011;11936;50.820;4.336;2023-08-31T08:43:44;10.02;;;4.05;;
23519;SDS011;11936;50.820;4.336;2023-08-31T08:46:13;12.02;;;4.28;;
23519;SDS011;11936;50.820;4.336;2023-08-31T08:48:39;14.10;;;4.65;;
23519;SDS011;11936;50.820;4.336;2023-08-31T08:51:06;10.10;;;3.83;;
23519;SDS011;11936;50.820;4.336;2023-08-31T08:53:33;11.60;;;4.22;;
23519;SDS011;11936;50.820;4.336;2023-08-31T08:55:59;11.27;;;3.97;;
23519;SDS011;11936;50.820;4.336;2023-08-31T08:58:25;15.52;;;4.25;;
23519;SDS011;11936;50.820;4.336;2023-08-31T09:00:50;12.90;;;4.57;;
23519;SDS011;11936;50.820;4.336;2023-08-31T09:05:44;8.50;;;4.47;;
23519;SDS011;11936;50.820;4.336;2023-08-31T09:08:10;9.50;;;4.10;;
23519;SDS011;11936;50.820;4.336;2023-08-31T09:10:39;9.63;;;4.30;;
23519;SDS011;11936;50.820;4.336;2023-08-31T09:13:10;10.13;;;4.28;;
23519;SDS011;11936;50.820;4.336;2023-08-31T09:15:38;12.73;;;3.92;;
23519;SDS011;11936;50.820;4.336;2023-08-31T09:18:14;8.60;;;3.78;;
23519;SDS011;11936;50.820;4.336;2023-08-31T09:20:47;6.15;;;3.38;;
23519;SDS011;11936;50.820;4.336;2023-08-31T09:23:13;9.25;;;4.10;;
23519;SDS011;11936;50.820;4.336;2023-08-31T09:25:43;8.23;;;3.78;;
23519;SDS011;11936;50.820;4.336;2023-08-31T09:28:24;7.18;;;3.92;;
23519;SDS011;11936;50.820;4.336;2023-08-31T09:30:52;7.38;;;3.85;;
23519;SDS011;11936;50.820;4.336;2023-08-31T09:33:18;12.18;;;4.00;;
23519;SDS011;11936;50.820;4.336;2023-08-31T09:35:49;8.50;;;3.53;;
23519;SDS011;11936;50.820;4.336;2023-08-31T09:38:16;10.38;;;3.80;;
23519;SDS011;11936;50.820;4.336;2023-08-31T09:40:42;9.18;;;3.80;;
23519;SDS011;11936;50.820;4.336;2023-08-31T09:43:08;12.63;;;4.15;;
23519;SDS011;11936;50.820;4.336;2023-08-31T09:45:34;7.63;;;3.83;;
23519;SDS011;11936;50.820;4.336;2023-08-31T09:48:01;10.32;;;3.85;;
23519;SDS011;11936;50.820;4.336;2023-08-31T09:50:29;17.80;;;3.58;;
23519;SDS011;11936;50.820;4.336;2023-08-31T09:52:56;9.15;;;3.60;;
23519;SDS011;11936;50.820;4.336;2023-08-31T09:55:30;14.05;;;3.92;;
23519;SDS011;11936;50.820;4.336;2023-08-31T09:57:57;10.05;;;4.78;;
23519;SDS011;11936;50.820;4.336;2023-08-31T10:00:31;9.75;;;3.88;;
23519;SDS011;11936;50.820;4.336;2023-08-31T10:03:00;7.35;;;3.03;;
23519;SDS011;11936;50.820;4.336;2023-08-31T10:05:29;8.82;;;3.90;;
23519;SDS011;11936;50.820;4.336;2023-08-31T10:07:56;9.02;;;3.40;;
23519;SDS011;11936;50.820;4.336;2023-08-31T10:10:23;9.00;;;3.38;;
23519;SDS011;11936;50.820;4.336;2023-08-31T10:12:49;12.52;;;3.20;;
23519;SDS011;11936;50.820;4.336;2023-08-31T10:15:16;10.93;;;3.35;;
23519;SDS011;11936;50.820;4.336;2023-08-31T10:17:43;8.15;;;3.20;;
23519;SDS011;11936;50.820;4.336;2023-08-31T10:20:10;8.75;;;3.05;;
23519;SDS011;11936;50.820;4.336;2023-08-31T10:22:37;7.75;;;2.70;;
23519;SDS011;11936;50.820;4.336;2023-08-31T10:25:04;8.13;;;3.20;;
23519;SDS011;11936;50.820;4.336;2023-08-31T10:27:38;13.03;;;2.67;;
23519;SDS011;11936;50.820;4.336;2023-08-31T10:32:40;12.20;;;3.17;;
23519;SDS011;11936;50.820;4.336;2023-08-31T10:35:07;9.38;;;3.33;;
23519;SDS011;11936;50.820;4.336;2023-08-31T10:37:34;6.07;;;3.00;;
23519;SDS011;11936;50.820;4.336;2023-08-31T10:40:12;9.02;;;3.25;;
23519;SDS011;11936;50.820;4.336;2023-08-31T10:42:41;9.90;;;3.65;;
23519;SDS011;11936;50.820;4.336;2023-08-31T10:45:12;7.75;;;3.10;;
23519;SDS011;11936;50.820;4.336;2023-08-31T10:47:46;9.02;;;3.38;;
23519;SDS011;11936;50.820;4.336;2023-08-31T10:50:33;6.47;;;3.17;;
23519;SDS011;11936;50.820;4.336;2023-08-31T10:53:10;6.10;;;3.00;;
23519;SDS011;11936;50.820;4.336;2023-08-31T10:56:00;7.75;;;3.35;;
23519;SDS011;11936;50.820;4.336;2023-08-31T10:58:31;12.13;;;4.50;;
23519;SDS011;11936;50.820;4.336;2023-08-31T11:00:57;12.88;;;3.00;;
23519;SDS011;11936;50.820;4.336;2023-08-31T11:03:23;7.75;;;2.67;;
23519;SDS011;11936;50.820;4.336;2023-08-31T11:05:52;6.13;;;2.70;;
23519;SDS011;11936;50.820;4.336;2023-08-31T11:08:24;8.43;;;2.30;;
23519;SDS011;11936;50.820;4.336;2023-08-31T11:10:51;10.68;;;2.47;;
23519;SDS011;11936;50.820;4.336;2023-08-31T11:13:20;11.75;;;3.15;;
23519;SDS011;11936;50.820;4.336;2023-08-31T11:15:48;9.48;;;2.20;;
23519;SDS011;11936;50.820;4.336;2023-08-31T11:18:14;5.80;;;2.70;;
23519;SDS011;11936;50.820;4.336;2023-08-31T11:20:43;10.90;;;2.72;;
23519;SDS011;11936;50.820;4.336;2023-08-31T11:23:09;10.05;;;3.03;;
23519;SDS011;11936;50.820;4.336;2023-08-31T11:25:35;4.82;;;2.63;;
23519;SDS011;11936;50.820;4.336;2023-08-31T11:28:05;6.13;;;2.22;;
23519;SDS011;11936;50.820;4.336;2023-08-31T11:30:32;6.28;;;2.55;;
23519;SDS011;11936;50.820;4.336;2023-08-31T11:33:05;8.80;;;2.33;;
23519;SDS011;11936;50.820;4.336;2023-08-31T11:35:33;7.50;;;2.17;;
23519;SDS011;11936;50.820;4.336;2023-08-31T11:38:00;12.38;;;2.58;;
23519;SDS011;11936;50.820;4.336;2023-08-31T11:40:26;5.97;;;1.90;;
23519;SDS011;11936;50.820;4.336;2023-08-31T11:42:52;8.15;;;2.15;;
23519;SDS011;11936;50.820;4.336;2023-08-31T11:45:18;9.50;;;2.28;;
23519;SDS011;11936;50.820;4.336;2023-08-31T11:47:45;5.80;;;2.35;;
23519;SDS011;11936;50.820;4.336;2023-08-31T11:50:13;10.52;;;2.17;;
23519;SDS011;11936;50.820;4.336;2023-08-31T11:52:41;4.10;;;2.33;;
23519;SDS011;11936;50.820;4.336;2023-08-31T11:55:14;9.98;;;2.65;;
23519;SDS011;11936;50.820;4.336;2023-08-31T11:57:47;6.80;;;1.95;;
23519;SDS011;11936;50.820;4.336;2023-08-31T12:00:18;6.57;;;1.95;;
23519;SDS011;11936;50.820;4.336;2023-08-31T12:05:23;4.97;;;2.45;;
23519;SDS011;11936;50.820;4.336;2023-08-31T12:07:48;7.88;;;2.65;;
23519;SDS011;11936;50.820;4.336;2023-08-31T12:10:16;6.47;;;2.42;;
23519;SDS011;11936;50.820;4.336;2023-08-31T12:12:41;4.28;;;2.25;;
23519;SDS011;11936;50.820;4.336;2023-08-31T12:15:07;7.93;;;2.53;;
23519;SDS011;11936;50.820;4.336;2023-08-31T12:17:36;8.65;;;2.70;;
23519;SDS011;11936;50.820;4.336;2023-08-31T12:20:03;7.40;;;2.45;;
23519;SDS011;11936;50.820;4.336;2023-08-31T12:22:33;11.95;;;2.47;;
23519;SDS011;11936;50.820;4.336;2023-08-31T12:25:00;7.10;;;2.35;;
23519;SDS011;11936;50.820;4.336;2023-08-31T12:27:25;12.38;;;2.78;;
23519;SDS011;11936;50.820;4.336;2023-08-31T12:29:51;5.13;;;2.25;;
23519;SDS011;11936;50.820;4.336;2023-08-31T12:32:17;7.78;;;2.78;;
23519;SDS011;11936;50.820;4.336;2023-08-31T12:34:46;6.70;;;2.63;;
23519;SDS011;11936;50.820;4.336;2023-08-31T12:37:11;7.53;;;2.22;;
23519;SDS011;11936;50.820;4.336;2023-08-31T12:39:37;5.32;;;2.20;;
23519;SDS011;11936;50.820;4.336;2023-08-31T12:42:04;5.68;;;1.88;;
23519;SDS011;11936;50.820;4.336;2023-08-31T12:44:30;8.63;;;2.88;;
23519;SDS011;11936;50.820;4.336;2023-08-31T12:46:56;9.20;;;2.63;;
23519;SDS011;11936;50.820;4.336;2023-08-31T12:49:21;6.68;;;2.50;;
23519;SDS011;11936;50.820;4.336;2023-08-31T12:51:48;6.70;;;2.25;;
23519;SDS011;11936;50.820;4.336;2023-08-31T12:54:15;3.95;;;2.03;;
23519;SDS011;11936;50.820;4.336;2023-08-31T12:56:41;6.07;;;1.92;;
23519;SDS011;11936;50.820;4.336;2023-08-31T12:59:06;5.32;;;1.60;;
23519;SDS011;11936;50.820;4.336;2023-08-31T13:01:32;6.65;;;2.00;;
23519;SDS011;11936;50.820;4.336;2023-08-31T13:03:58;2.03;;;1.50;;
23519;SDS011;11936;50.820;4.336;2023-08-31T13:06:24;7.45;;;2.20;;
23519;SDS011;11936;50.820;4.336;2023-08-31T13:08:50;8.70;;;2.65;;
23519;SDS011;11936;50.820;4.336;2023-08-31T13:11:16;5.63;;;2.03;;
23519;SDS011;11936;50.820;4.336;2023-08-31T13:13:43;6.28;;;2.05;;
23519;SDS011;11936;50.820;4.336;2023-08-31T13:16:09;7.35;;;1.88;;
23519;SDS011;11936;50.820;4.336;2023-08-31T13:18:35;6.63;;;1.80;;
23519;SDS011;11936;50.820;4.336;2023-08-31T13:21:01;4.88;;;2.28;;
23519;SDS011;11936;50.820;4.336;2023-08-31T13:23:27;7.38;;;2.35;;
23519;SDS011;11936;50.820;4.336;2023-08-31T13:25:53;5.85;;;2.05;;
23519;SDS011;11936;50.820;4.336;2023-08-31T13:28:21;4.90;;;2.22;;
23519;SDS011;11936;50.820;4.336;2023-08-31T13:30:46;5.90;;;2.10;;
23519;SDS011;11936;50.820;4.336;2023-08-31T13:33:12;4.82;;;1.88;;
23519;SDS011;11936;50.820;4.336;2023-08-31T13:35:38;4.53;;;1.85;;
23519;SDS011;11936;50.820;4.336;2023-08-31T13:38:03;9.90;;;2.40;;
23519;SDS011;11936;50.820;4.336;2023-08-31T13:40:29;8.60;;;2.72;;
23519;SDS011;11936;50.820;4.336;2023-08-31T13:42:56;7.20;;;2.38;;
23519;SDS011;11936;50.820;4.336;2023-08-31T13:45:26;9.27;;;2.58;;
23519;SDS011;11936;50.820;4.336;2023-08-31T13:47:52;8.77;;;2.20;;
23519;SDS011;11936;50.820;4.336;2023-08-31T13:50:18;4.72;;;2.47;;
23519;SDS011;11936;50.820;4.336;2023-08-31T13:52:44;8.40;;;2.38;;
23519;SDS011;11936;50.820;4.336;2023-08-31T13:55:10;10.57;;;2.45;;
23519;SDS011;11936;50.820;4.336;2023-08-31T13:57:35;6.88;;;2.45;;
23519;SDS011;11936;50.820;4.336;2023-08-31T14:00:01;14.05;;;3.28;;
23519;SDS011;11936;50.820;4.336;2023-08-31T14:02:29;8.77;;;2.22;;
23519;SDS011;11936;50.820;4.336;2023-08-31T14:04:55;10.45;;;2.42;;
23519;SDS011;11936;50.820;4.336;2023-08-31T14:07:22;9.35;;;2.55;;
23519;SDS011;11936;50.820;4.336;2023-08-31T14:09:47;6.18;;;2.45;;
23519;SDS011;11936;50.820;4.336;2023-08-31T14:12:13;11.02;;;2.85;;
23519;SDS011;11936;50.820;4.336;2023-08-31T14:14:39;7.68;;;2.80;;
23519;SDS011;11936;50.820;4.336;2023-08-31T14:17:06;9.85;;;2.63;;
23519;SDS011;11936;50.820;4.336;2023-08-31T14:19:32;8.80;;;2.63;;
23519;SDS011;11936;50.820;4.336;2023-08-31T14:21:58;9.25;;;2.90;;
23519;SDS011;11936;50.820;4.336;2023-08-31T14:24:24;6.32;;;2.78;;
23519;SDS011;11936;50.820;4.336;2023-08-31T14:26:49;11.27;;;2.90;;
23519;SDS011;11936;50.820;4.336;2023-08-31T14:29:16;8.07;;;2.92;;
23519;SDS011;11936;50.820;4.336;2023-08-31T14:31:41;10.50;;;3.17;;
23519;SDS011;11936;50.820;4.336;2023-08-31T14:34:07;10.90;;;3.15;;
23519;SDS011;11936;50.820;4.336;2023-08-31T14:36:33;7.03;;;2.50;;
23519;SDS011;11936;50.820;4.336;2023-08-31T14:38:58;12.02;;;2.83;;
23519;SDS011;11936;50.820;4.336;2023-08-31T14:41:24;7.72;;;3.17;;
23519;SDS011;11936;50.820;4.336;2023-08-31T14:43:50;7.43;;;3.05;;
23519;SDS011;11936;50.820;4.336;2023-08-31T14:46:15;10.70;;;2.53;;
23519;SDS011;11936;50.820;4.336;2023-08-31T14:48:41;6.20;;;2.70;;
23519;SDS011;11936;50.820;4.336;2023-08-31T14:51:06;9.85;;;3.33;;
23519;SDS011;11936;50.820;4.336;2023-08-31T14:53:34;10.57;;;2.95;;
23519;SDS011;11936;50.820;4.336;2023-08-31T14:55:59;11.18;;;2.95;;
23519;SDS011;11936;50.820;4.336;2023-08-31T14:58:25;10.35;;;3.60;;
23519;SDS011;11936;50.820;4.336;2023-08-31T15:00:50;10.57;;;3.30;;
23519;SDS011;11936;50.820;4.336;2023-08-31T15:03:20;8.65;;;3.35;;
23519;SDS011;11936;50.820;4.336;2023-08-31T15:05:48;6.68;;;3.05;;